sensor_id;sensor_type;location;lat;lon;timestamp;P1;durP1;ratioP1;P2;durP2;ratioP2
13032;SDS011;6583;42.632;23.298;2024-01-06T00:01:11;4.07;;;2.00;;
13032;SDS011;6583;42.632;23.298;2024-01-06T00:03:40;1.93;;;1.60;;
13032;SDS011;6583;42.632;23.298;2024-01-06T00:06:06;2.17;;;1.60;;
13032;SDS011;6583;42.632;23.298;2024-01-06T00:08:33;2.87;;;1.70;;
13032;SDS011;6583;42.632;23.298;2024-01-06T00:11:00;2.33;;;1.70;;
13032;SDS011;6583;42.632;23.298;2024-01-06T00:13:28;1.83;;;1.50;;
13032;SDS011;6583;42.632;23.298;2024-01-06T00:15:54;3.90;;;1.47;;
13032;SDS011;6583;42.632;23.298;2024-01-06T00:18:22;4.13;;;3.10;;
13032;SDS011;6583;42.632;23.298;2024-01-06T00:20:49;10.87;;;6.50;;
13032;SDS011;6583;42.632;23.298;2024-01-06T00:23:15;13.70;;;9.27;;
13032;SDS011;6583;42.632;23.298;2024-01-06T00:25:42;9.67;;;4.77;;
13032;SDS011;6583;42.632;23.298;2024-01-06T00:28:09;4.23;;;3.23;;
13032;SDS011;6583;42.632;23.298;2024-01-06T00:30:35;2.37;;;2.00;;
13032;SDS011;6583;42.632;23.298;2024-01-06T00:33:03;3.07;;;2.23;;
13032;SDS011;6583;42.632;23.298;2024-01-06T00:35:31;3.17;;;2.07;;
13032;SDS011;6583;42.632;23.298;2024-01-06T00:37:58;1.83;;;1.37;;
13032;SDS011;6583;42.632;23.298;2024-01-06T00:40:25;3.53;;;1.40;;
13032;SDS011;6583;42.632;23.298;2024-01-06T00:42:52;2.00;;;1.20;;
13032;SDS011;6583;42.632;23.298;2024-01-06T00:45:18;3.43;;;1.30;;
13032;SDS011;6583;42.632;23.298;2024-01-06T00:47:45;2.10;;;1.20;;
13032;SDS011;6583;42.632;23.298;2024-01-06T00:50:12;1.37;;;1.20;;
13032;SDS011;6583;42.632;23.298;2024-01-06T00:52:41;2.07;;;1.27;;
13032;SDS011;6583;42.632;23.298;2024-01-06T00:55:08;3.40;;;1.53;;
13032;SDS011;6583;42.632;23.298;2024-01-06T00:57:34;4.20;;;1.70;;
13032;SDS011;6583;42.632;23.298;2024-01-06T01:00:02;1.53;;;1.30;;
13032;SDS011;6583;42.632;23.298;2024-01-06T01:02:29;1.50;;;1.30;;
13032;SDS011;6583;42.632;23.298;2024-01-06T01:04:56;2.07;;;1.47;;
13032;SDS011;6583;42.632;23.298;2024-01-06T01:07:23;3.33;;;1.63;;
13032;SDS011;6583;42.632;23.298;2024-01-06T01:09:53;2.13;;;1.30;;
13032;SDS011;6583;42.632;23.298;2024-01-06T01:12:21;2.03;;;1.50;;
13032;SDS011;6583;42.632;23.298;2024-01-06T01:14:48;2.00;;;1.20;;
13032;SDS011;6583;42.632;23.298;2024-01-06T01:17:14;3.03;;;1.40;;
13032;SDS011;6583;42.632;23.298;2024-01-06T01:19:41;2.50;;;1.43;;
13032;SDS011;6583;42.632;23.298;2024-01-06T01:22:08;2.90;;;1.50;;
13032;SDS011;6583;42.632;23.298;2024-01-06T01:24:34;2.47;;;1.30;;
13032;SDS011;6583;42.632;23.298;2024-01-06T01:27:02;2.03;;;1.60;;
13032;SDS011;6583;42.632;23.298;2024-01-06T01:29:29;1.93;;;1.40;;
13032;SDS011;6583;42.632;23.298;2024-01-06T01:31:56;1.60;;;1.23;;
13032;SDS011;6583;42.632;23.298;2024-01-06T01:34:22;2.10;;;1.47;;
13032;SDS011;6583;42.632;23.298;2024-01-06T01:36:49;2.30;;;1.50;;
13032;SDS011;6583;42.632;23.298;2024-01-06T01:39:16;2.67;;;1.63;;
13032;SDS011;6583;42.632;23.298;2024-01-06T01:41:43;1.63;;;1.50;;
13032;SDS011;6583;42.632;23.298;2024-01-06T01:44:11;3.33;;;1.70;;
13032;SDS011;6583;42.632;23.298;2024-01-06T01:46:38;1.93;;;1.40;;
13032;SDS011;6583;42.632;23.298;2024-01-06T01:49:05;2.17;;;1.50;;
13032;SDS011;6583;42.632;23.298;2024-01-06T01:51:32;2.83;;;1.50;;
13032;SDS011;6583;42.632;23.298;2024-01-06T01:54:01;2.20;;;1.50;;
13032;SDS011;6583;42.632;23.298;2024-01-06T01:56:28;1.47;;;1.27;;
13032;SDS011;6583;42.632;23.298;2024-01-06T01:58:59;4.37;;;1.40;;
13032;SDS011;6583;42.632;23.298;2024-01-06T02:01:28;3.03;;;1.53;;
13032;SDS011;6583;42.632;23.298;2024-01-06T02:03:55;1.87;;;1.40;;
13032;SDS011;6583;42.632;23.298;2024-01-06T02:06:22;2.00;;;1.50;;
13032;SDS011;6583;42.632;23.298;2024-01-06T02:08:49;2.53;;;1.60;;
13032;SDS011;6583;42.632;23.298;2024-01-06T02:11:15;3.30;;;1.80;;
13032;SDS011;6583;42.632;23.298;2024-01-06T02:13:41;2.10;;;1.70;;
13032;SDS011;6583;42.632;23.298;2024-01-06T02:16:08;2.83;;;1.73;;
13032;SDS011;6583;42.632;23.298;2024-01-06T02:18:36;2.60;;;1.70;;
13032;SDS011;6583;42.632;23.298;2024-01-06T02:21:02;2.87;;;1.70;;
13032;SDS011;6583;42.632;23.298;2024-01-06T02:23:31;2.83;;;1.70;;
13032;SDS011;6583;42.632;23.298;2024-01-06T02:25:57;3.03;;;1.60;;
13032;SDS011;6583;42.632;23.298;2024-01-06T02:28:24;5.13;;;1.60;;
13032;SDS011;6583;42.632;23.298;2024-01-06T02:30:51;2.63;;;1.60;;
13032;SDS011;6583;42.632;23.298;2024-01-06T02:33:17;2.23;;;1.73;;
13032;SDS011;6583;42.632;23.298;2024-01-06T02:35:45;1.70;;;1.60;;
13032;SDS011;6583;42.632;23.298;2024-01-06T02:38:11;2.93;;;1.63;;
13032;SDS011;6583;42.632;23.298;2024-01-06T02:40:39;2.13;;;1.80;;
13032;SDS011;6583;42.632;23.298;2024-01-06T02:43:07;2.63;;;1.70;;
13032;SDS011;6583;42.632;23.298;2024-01-06T02:45:34;4.23;;;1.90;;
13032;SDS011;6583;42.632;23.298;2024-01-06T02:48:01;2.43;;;1.60;;
13032;SDS011;6583;42.632;23.298;2024-01-06T02:50:27;2.27;;;1.63;;
13032;SDS011;6583;42.632;23.298;2024-01-06T02:52:54;2.30;;;1.93;;
13032;SDS011;6583;42.632;23.298;2024-01-06T02:55:21;2.87;;;1.73;;
13032;SDS011;6583;42.632;23.298;2024-01-06T02:57:49;1.73;;;1.63;;
13032;SDS011;6583;42.632;23.298;2024-01-06T03:00:15;3.77;;;1.60;;
13032;SDS011;6583;42.632;23.298;2024-01-06T03:02:42;2.57;;;1.77;;
13032;SDS011;6583;42.632;23.298;2024-01-06T03:05:09;2.90;;;1.90;;
13032;SDS011;6583;42.632;23.298;2024-01-06T03:07:36;2.30;;;1.70;;
13032;SDS011;6583;42.632;23.298;2024-01-06T03:10:03;3.13;;;2.10;;
13032;SDS011;6583;42.632;23.298;2024-01-06T03:12:30;4.33;;;1.80;;
13032;SDS011;6583;42.632;23.298;2024-01-06T03:14:58;2.23;;;1.70;;
13032;SDS011;6583;42.632;23.298;2024-01-06T03:17:24;2.93;;;1.90;;
13032;SDS011;6583;42.632;23.298;2024-01-06T03:19:51;2.70;;;1.87;;
13032;SDS011;6583;42.632;23.298;2024-01-06T03:22:18;2.97;;;2.00;;
13032;SDS011;6583;42.632;23.298;2024-01-06T03:24:44;2.30;;;1.67;;
13032;SDS011;6583;42.632;23.298;2024-01-06T03:27:11;2.67;;;1.67;;
13032;SDS011;6583;42.632;23.298;2024-01-06T03:29:39;2.57;;;1.47;;
13032;SDS011;6583;42.632;23.298;2024-01-06T03:32:07;2.13;;;1.50;;
13032;SDS011;6583;42.632;23.298;2024-01-06T03:34:34;2.67;;;1.80;;
13032;SDS011;6583;42.632;23.298;2024-01-06T03:37:00;2.43;;;1.40;;
13032;SDS011;6583;42.632;23.298;2024-01-06T03:39:27;2.03;;;1.60;;
13032;SDS011;6583;42.632;23.298;2024-01-06T03:41:53;2.03;;;1.60;;
13032;SDS011;6583;42.632;23.298;2024-01-06T03:44:20;2.43;;;1.47;;
13032;SDS011;6583;42.632;23.298;2024-01-06T03:46:46;1.83;;;1.60;;
13032;SDS011;6583;42.632;23.298;2024-01-06T03:49:14;2.47;;;1.50;;
13032;SDS011;6583;42.632;23.298;2024-01-06T03:51:43;2.17;;;1.47;;
13032;SDS011;6583;42.632;23.298;2024-01-06T03:54:10;3.13;;;1.50;;
13032;SDS011;6583;42.632;23.298;2024-01-06T03:56:36;2.77;;;1.40;;
13032;SDS011;6583;42.632;23.298;2024-01-06T03:59:03;1.40;;;1.30;;
13032;SDS011;6583;42.632;23.298;2024-01-06T04:01:30;3.50;;;1.90;;
13032;SDS011;6583;42.632;23.298;2024-01-06T04:03:59;2.53;;;1.50;;
13032;SDS011;6583;42.632;23.298;2024-01-06T04:06:27;2.87;;;1.43;;
13032;SDS011;6583;42.632;23.298;2024-01-06T04:08:54;2.37;;;1.50;;
13032;SDS011;6583;42.632;23.298;2024-01-06T04:11:21;2.17;;;1.70;;
13032;SDS011;6583;42.632;23.298;2024-01-06T04:13:47;2.17;;;1.40;;
13032;SDS011;6583;42.632;23.298;2024-01-06T04:16:14;2.73;;;1.50;;
13032;SDS011;6583;42.632;23.298;2024-01-06T04:18:41;2.63;;;1.60;;
13032;SDS011;6583;42.632;23.298;2024-01-06T04:21:07;3.50;;;1.80;;
13032;SDS011;6583;42.632;23.298;2024-01-06T04:23:37;2.23;;;1.50;;
13032;SDS011;6583;42.632;23.298;2024-01-06T04:26:04;1.63;;;1.43;;
13032;SDS011;6583;42.632;23.298;2024-01-06T04:28:32;3.03;;;1.40;;
13032;SDS011;6583;42.632;23.298;2024-01-06T04:30:58;3.03;;;1.50;;
13032;SDS011;6583;42.632;23.298;2024-01-06T04:33:25;2.50;;;1.77;;
13032;SDS011;6583;42.632;23.298;2024-01-06T04:35:52;1.90;;;1.50;;
13032;SDS011;6583;42.632;23.298;2024-01-06T04:38:18;1.97;;;1.50;;
13032;SDS011;6583;42.632;23.298;2024-01-06T04:40:46;2.03;;;1.60;;
13032;SDS011;6583;42.632;23.298;2024-01-06T04:43:13;1.90;;;1.50;;
13032;SDS011;6583;42.632;23.298;2024-01-06T04:45:40;2.77;;;1.70;;
13032;SDS011;6583;42.632;23.298;2024-01-06T04:48:07;2.67;;;1.97;;
13032;SDS011;6583;42.632;23.298;2024-01-06T04:50:33;3.87;;;1.60;;
13032;SDS011;6583;42.632;23.298;2024-01-06T04:53:00;3.23;;;1.73;;
13032;SDS011;6583;42.632;23.298;2024-01-06T04:55:26;2.60;;;1.80;;
13032;SDS011;6583;42.632;23.298;2024-01-06T04:57:55;2.57;;;1.97;;
13032;SDS011;6583;42.632;23.298;2024-01-06T05:00:21;2.90;;;1.90;;
13032;SDS011;6583;42.632;23.298;2024-01-06T05:02:48;2.90;;;1.90;;
13032;SDS011;6583;42.632;23.298;2024-01-06T05:05:15;2.30;;;1.80;;
13032;SDS011;6583;42.632;23.298;2024-01-06T05:07:41;2.73;;;1.53;;
13032;SDS011;6583;42.632;23.298;2024-01-06T05:10:08;1.60;;;1.47;;
13032;SDS011;6583;42.632;23.298;2024-01-06T05:12:35;2.60;;;1.60;;
13032;SDS011;6583;42.632;23.298;2024-01-06T05:15:03;3.33;;;1.80;;
13032;SDS011;6583;42.632;23.298;2024-01-06T05:17:30;2.47;;;1.63;;
13032;SDS011;6583;42.632;23.298;2024-01-06T05:19:57;3.97;;;1.63;;
13032;SDS011;6583;42.632;23.298;2024-01-06T05:22:25;2.83;;;1.70;;
13032;SDS011;6583;42.632;23.298;2024-01-06T05:24:51;1.97;;;1.60;;
13032;SDS011;6583;42.632;23.298;2024-01-06T05:27:19;2.50;;;1.60;;
13032;SDS011;6583;42.632;23.298;2024-01-06T05:29:45;2.13;;;1.60;;
13032;SDS011;6583;42.632;23.298;2024-01-06T05:32:15;1.80;;;1.40;;
13032;SDS011;6583;42.632;23.298;2024-01-06T05:34:42;2.53;;;1.50;;
13032;SDS011;6583;42.632;23.298;2024-01-06T05:37:09;2.67;;;1.70;;
13032;SDS011;6583;42.632;23.298;2024-01-06T05:39:37;4.73;;;1.60;;
13032;SDS011;6583;42.632;23.298;2024-01-06T05:42:03;1.73;;;1.40;;
13032;SDS011;6583;42.632;23.298;2024-01-06T05:44:31;4.80;;;1.60;;
13032;SDS011;6583;42.632;23.298;2024-01-06T05:46:57;2.43;;;1.57;;
13032;SDS011;6583;42.632;23.298;2024-01-06T05:49:25;5.27;;;2.80;;
13032;SDS011;6583;42.632;23.298;2024-01-06T05:51:52;8.37;;;5.20;;
13032;SDS011;6583;42.632;23.298;2024-01-06T05:54:18;12.90;;;7.30;;
13032;SDS011;6583;42.632;23.298;2024-01-06T05:56:45;6.17;;;3.70;;
13032;SDS011;6583;42.632;23.298;2024-01-06T05:59:12;3.20;;;2.40;;
13032;SDS011;6583;42.632;23.298;2024-01-06T06:01:39;3.37;;;2.10;;
13032;SDS011;6583;42.632;23.298;2024-01-06T06:04:06;2.47;;;1.77;;
13032;SDS011;6583;42.632;23.298;2024-01-06T06:06:34;3.37;;;1.83;;
13032;SDS011;6583;42.632;23.298;2024-01-06T06:09:02;2.83;;;1.57;;
13032;SDS011;6583;42.632;23.298;2024-01-06T06:11:31;3.40;;;1.60;;
13032;SDS011;6583;42.632;23.298;2024-01-06T06:13:58;2.50;;;1.90;;
13032;SDS011;6583;42.632;23.298;2024-01-06T06:16:27;2.17;;;1.83;;
13032;SDS011;6583;42.632;23.298;2024-01-06T06:18:54;3.30;;;1.90;;
13032;SDS011;6583;42.632;23.298;2024-01-06T06:21:21;3.20;;;1.80;;
13032;SDS011;6583;42.632;23.298;2024-01-06T06:23:49;3.13;;;1.80;;
13032;SDS011;6583;42.632;23.298;2024-01-06T06:26:16;3.23;;;1.87;;
13032;SDS011;6583;42.632;23.298;2024-01-06T06:28:42;3.23;;;1.53;;
13032;SDS011;6583;42.632;23.298;2024-01-06T06:31:09;2.90;;;1.77;;
13032;SDS011;6583;42.632;23.298;2024-01-06T06:33:36;3.20;;;2.00;;
13032;SDS011;6583;42.632;23.298;2024-01-06T06:36:04;2.23;;;2.03;;
13032;SDS011;6583;42.632;23.298;2024-01-06T06:38:31;5.23;;;2.80;;
13032;SDS011;6583;42.632;23.298;2024-01-06T06:40:59;4.00;;;2.93;;
13032;SDS011;6583;42.632;23.298;2024-01-06T06:43:25;5.10;;;3.30;;
13032;SDS011;6583;42.632;23.298;2024-01-06T06:45:52;5.07;;;2.93;;
13032;SDS011;6583;42.632;23.298;2024-01-06T06:48:20;4.77;;;3.50;;
13032;SDS011;6583;42.632;23.298;2024-01-06T06:50:47;3.90;;;2.80;;
13032;SDS011;6583;42.632;23.298;2024-01-06T06:53:13;4.20;;;2.33;;
13032;SDS011;6583;42.632;23.298;2024-01-06T06:55:40;2.67;;;2.20;;
13032;SDS011;6583;42.632;23.298;2024-01-06T06:58:08;2.83;;;1.90;;
13032;SDS011;6583;42.632;23.298;2024-01-06T07:00:35;2.90;;;2.23;;
13032;SDS011;6583;42.632;23.298;2024-01-06T07:03:02;3.10;;;2.23;;
13032;SDS011;6583;42.632;23.298;2024-01-06T07:05:29;3.43;;;2.40;;
13032;SDS011;6583;42.632;23.298;2024-01-06T07:07:56;5.53;;;2.30;;
13032;SDS011;6583;42.632;23.298;2024-01-06T07:10:22;4.90;;;2.50;;
13032;SDS011;6583;42.632;23.298;2024-01-06T07:12:49;3.53;;;2.27;;
13032;SDS011;6583;42.632;23.298;2024-01-06T07:15:17;3.87;;;2.50;;
13032;SDS011;6583;42.632;23.298;2024-01-06T07:17:44;3.30;;;2.60;;
13032;SDS011;6583;42.632;23.298;2024-01-06T07:20:10;3.70;;;2.40;;
13032;SDS011;6583;42.632;23.298;2024-01-06T07:22:37;4.07;;;2.53;;
13032;SDS011;6583;42.632;23.298;2024-01-06T07:25:04;4.00;;;2.70;;
13032;SDS011;6583;42.632;23.298;2024-01-06T07:27:32;4.43;;;2.70;;
13032;SDS011;6583;42.632;23.298;2024-01-06T07:29:59;5.73;;;3.00;;
13032;SDS011;6583;42.632;23.298;2024-01-06T07:32:27;3.47;;;2.70;;
13032;SDS011;6583;42.632;23.298;2024-01-06T07:34:53;4.27;;;2.73;;
13032;SDS011;6583;42.632;23.298;2024-01-06T07:37:20;4.10;;;2.47;;
13032;SDS011;6583;42.632;23.298;2024-01-06T07:39:47;4.57;;;3.60;;
13032;SDS011;6583;42.632;23.298;2024-01-06T07:42:14;4.07;;;3.67;;
13032;SDS011;6583;42.632;23.298;2024-01-06T07:44:40;4.40;;;3.43;;
13032;SDS011;6583;42.632;23.298;2024-01-06T07:47:07;3.90;;;3.10;;
13032;SDS011;6583;42.632;23.298;2024-01-06T07:49:35;5.73;;;3.30;;
13032;SDS011;6583;42.632;23.298;2024-01-06T07:52:05;4.43;;;2.53;;
13032;SDS011;6583;42.632;23.298;2024-01-06T07:54:32;5.13;;;2.80;;
13032;SDS011;6583;42.632;23.298;2024-01-06T07:56:58;3.70;;;2.97;;
13032;SDS011;6583;42.632;23.298;2024-01-06T07:59:25;6.73;;;3.93;;
13032;SDS011;6583;42.632;23.298;2024-01-06T08:01:52;6.13;;;4.77;;
13032;SDS011;6583;42.632;23.298;2024-01-06T08:04:18;5.93;;;4.50;;
13032;SDS011;6583;42.632;23.298;2024-01-06T08:06:46;5.50;;;4.03;;
13032;SDS011;6583;42.632;23.298;2024-01-06T08:09:13;5.97;;;4.20;;
13032;SDS011;6583;42.632;23.298;2024-01-06T08:11:40;5.00;;;3.60;;
13032;SDS011;6583;42.632;23.298;2024-01-06T08:14:07;4.90;;;3.43;;
13032;SDS011;6583;42.632;23.298;2024-01-06T08:16:36;5.13;;;4.10;;
13032;SDS011;6583;42.632;23.298;2024-01-06T08:19:02;13.47;;;9.43;;
13032;SDS011;6583;42.632;23.298;2024-01-06T08:21:29;12.40;;;9.30;;
13032;SDS011;6583;42.632;23.298;2024-01-06T08:23:57;13.47;;;10.70;;
13032;SDS011;6583;42.632;23.298;2024-01-06T08:26:23;15.30;;;9.33;;
13032;SDS011;6583;42.632;23.298;2024-01-06T08:28:50;14.67;;;9.63;;
13032;SDS011;6583;42.632;23.298;2024-01-06T08:31:17;11.60;;;8.40;;
13032;SDS011;6583;42.632;23.298;2024-01-06T08:33:44;12.77;;;8.77;;
13032;SDS011;6583;42.632;23.298;2024-01-06T08:36:11;11.47;;;8.20;;
13032;SDS011;6583;42.632;23.298;2024-01-06T08:38:38;10.93;;;7.77;;
13032;SDS011;6583;42.632;23.298;2024-01-06T08:41:06;11.03;;;7.00;;
13032;SDS011;6583;42.632;23.298;2024-01-06T08:43:32;9.10;;;6.63;;
13032;SDS011;6583;42.632;23.298;2024-01-06T08:45:59;8.93;;;6.30;;
13032;SDS011;6583;42.632;23.298;2024-01-06T08:48:27;8.43;;;5.43;;
13032;SDS011;6583;42.632;23.298;2024-01-06T08:50:53;5.87;;;4.60;;
13032;SDS011;6583;42.632;23.298;2024-01-06T08:53:20;8.33;;;4.73;;
13032;SDS011;6583;42.632;23.298;2024-01-06T08:55:47;6.77;;;5.00;;
13032;SDS011;6583;42.632;23.298;2024-01-06T08:58:15;5.80;;;4.77;;
13032;SDS011;6583;42.632;23.298;2024-01-06T09:00:42;6.43;;;4.83;;
13032;SDS011;6583;42.632;23.298;2024-01-06T09:03:09;6.93;;;5.13;;
13032;SDS011;6583;42.632;23.298;2024-01-06T09:05:37;6.30;;;4.83;;
13032;SDS011;6583;42.632;23.298;2024-01-06T09:08:04;7.53;;;5.70;;
13032;SDS011;6583;42.632;23.298;2024-01-06T09:10:32;9.10;;;5.73;;
13032;SDS011;6583;42.632;23.298;2024-01-06T09:12:58;7.80;;;5.60;;
13032;SDS011;6583;42.632;23.298;2024-01-06T09:15:28;7.90;;;6.00;;
13032;SDS011;6583;42.632;23.298;2024-01-06T09:17:54;9.77;;;6.33;;
13032;SDS011;6583;42.632;23.298;2024-01-06T09:20:21;10.50;;;6.43;;
13032;SDS011;6583;42.632;23.298;2024-01-06T09:22:48;9.77;;;6.07;;
13032;SDS011;6583;42.632;23.298;2024-01-06T09:25:15;7.33;;;5.50;;
13032;SDS011;6583;42.632;23.298;2024-01-06T09:27:42;11.07;;;6.40;;
13032;SDS011;6583;42.632;23.298;2024-01-06T09:30:09;8.80;;;5.83;;
13032;SDS011;6583;42.632;23.298;2024-01-06T09:32:37;8.80;;;6.03;;
13032;SDS011;6583;42.632;23.298;2024-01-06T09:35:04;11.07;;;6.73;;
13032;SDS011;6583;42.632;23.298;2024-01-06T09:37:31;12.00;;;9.30;;
13032;SDS011;6583;42.632;23.298;2024-01-06T09:39:58;15.90;;;9.73;;
13032;SDS011;6583;42.632;23.298;2024-01-06T09:42:24;15.03;;;10.80;;
13032;SDS011;6583;42.632;23.298;2024-01-06T09:44:51;18.73;;;11.80;;
13032;SDS011;6583;42.632;23.298;2024-01-06T09:47:18;12.27;;;9.30;;
13032;SDS011;6583;42.632;23.298;2024-01-06T09:49:49;12.37;;;9.37;;
13032;SDS011;6583;42.632;23.298;2024-01-06T09:52:19;14.53;;;8.10;;
13032;SDS011;6583;42.632;23.298;2024-01-06T09:54:50;11.87;;;8.30;;
13032;SDS011;6583;42.632;23.298;2024-01-06T09:57:18;10.10;;;6.90;;
13032;SDS011;6583;42.632;23.298;2024-01-06T09:59:46;12.43;;;7.53;;
13032;SDS011;6583;42.632;23.298;2024-01-06T10:02:14;12.57;;;7.13;;
13032;SDS011;6583;42.632;23.298;2024-01-06T10:04:42;8.20;;;6.40;;
13032;SDS011;6583;42.632;23.298;2024-01-06T10:07:10;8.30;;;5.57;;
13032;SDS011;6583;42.632;23.298;2024-01-06T10:09:38;7.77;;;5.03;;
13032;SDS011;6583;42.632;23.298;2024-01-06T10:12:06;8.37;;;5.23;;
13032;SDS011;6583;42.632;23.298;2024-01-06T10:14:33;9.30;;;6.00;;
13032;SDS011;6583;42.632;23.298;2024-01-06T10:17:00;8.43;;;5.70;;
13032;SDS011;6583;42.632;23.298;2024-01-06T10:19:27;6.20;;;3.97;;
13032;SDS011;6583;42.632;23.298;2024-01-06T10:21:55;5.53;;;3.60;;
13032;SDS011;6583;42.632;23.298;2024-01-06T10:24:27;6.13;;;4.13;;
13032;SDS011;6583;42.632;23.298;2024-01-06T10:26:53;7.23;;;5.00;;
13032;SDS011;6583;42.632;23.298;2024-01-06T10:29:20;6.03;;;4.70;;
13032;SDS011;6583;42.632;23.298;2024-01-06T10:31:46;5.70;;;4.60;;
13032;SDS011;6583;42.632;23.298;2024-01-06T10:34:14;6.97;;;4.70;;
13032;SDS011;6583;42.632;23.298;2024-01-06T10:36:41;6.40;;;4.87;;
13032;SDS011;6583;42.632;23.298;2024-01-06T10:39:08;6.70;;;4.70;;
13032;SDS011;6583;42.632;23.298;2024-01-06T10:41:36;6.33;;;4.70;;
13032;SDS011;6583;42.632;23.298;2024-01-06T10:44:07;8.87;;;5.60;;
13032;SDS011;6583;42.632;23.298;2024-01-06T10:46:35;9.43;;;5.77;;
13032;SDS011;6583;42.632;23.298;2024-01-06T10:49:02;8.67;;;6.20;;
13032;SDS011;6583;42.632;23.298;2024-01-06T10:51:33;12.70;;;7.43;;
13032;SDS011;6583;42.632;23.298;2024-01-06T10:54:00;16.97;;;9.07;;
13032;SDS011;6583;42.632;23.298;2024-01-06T10:56:27;23.17;;;12.33;;
13032;SDS011;6583;42.632;23.298;2024-01-06T10:58:57;14.53;;;10.40;;
13032;SDS011;6583;42.632;23.298;2024-01-06T11:01:24;16.43;;;10.90;;
13032;SDS011;6583;42.632;23.298;2024-01-06T11:03:51;20.43;;;10.97;;
13032;SDS011;6583;42.632;23.298;2024-01-06T11:06:20;17.73;;;12.07;;
13032;SDS011;6583;42.632;23.298;2024-01-06T11:08:48;20.90;;;13.50;;
13032;SDS011;6583;42.632;23.298;2024-01-06T11:11:19;22.33;;;13.47;;
13032;SDS011;6583;42.632;23.298;2024-01-06T11:13:46;21.73;;;14.97;;
13032;SDS011;6583;42.632;23.298;2024-01-06T11:19:03;22.40;;;14.60;;
13032;SDS011;6583;42.632;23.298;2024-01-06T11:22:25;24.67;;;14.87;;
13032;SDS011;6583;42.632;23.298;2024-01-06T11:24:55;21.07;;;14.00;;
13032;SDS011;6583;42.632;23.298;2024-01-06T11:27:23;18.93;;;13.30;;
13032;SDS011;6583;42.632;23.298;2024-01-06T11:29:51;14.40;;;10.90;;
13032;SDS011;6583;42.632;23.298;2024-01-06T11:32:21;13.20;;;9.30;;
13032;SDS011;6583;42.632;23.298;2024-01-06T11:34:52;13.63;;;9.80;;
13032;SDS011;6583;42.632;23.298;2024-01-06T11:37:24;12.90;;;8.57;;
13032;SDS011;6583;42.632;23.298;2024-01-06T11:39:52;12.73;;;9.03;;
13032;SDS011;6583;42.632;23.298;2024-01-06T11:42:19;12.07;;;8.77;;
13032;SDS011;6583;42.632;23.298;2024-01-06T11:44:49;14.20;;;8.80;;
13032;SDS011;6583;42.632;23.298;2024-01-06T11:47:17;11.53;;;8.57;;
13032;SDS011;6583;42.632;23.298;2024-01-06T11:49:50;10.70;;;8.53;;
13032;SDS011;6583;42.632;23.298;2024-01-06T11:52:21;13.90;;;9.47;;
13032;SDS011;6583;42.632;23.298;2024-01-06T11:54:48;17.40;;;11.53;;
13032;SDS011;6583;42.632;23.298;2024-01-06T11:57:16;18.00;;;12.33;;
13032;SDS011;6583;42.632;23.298;2024-01-06T11:59:42;17.17;;;13.00;;
13032;SDS011;6583;42.632;23.298;2024-01-06T12:02:10;19.30;;;13.83;;
13032;SDS011;6583;42.632;23.298;2024-01-06T12:04:38;21.50;;;15.13;;
13032;SDS011;6583;42.632;23.298;2024-01-06T12:07:07;20.93;;;15.83;;
13032;SDS011;6583;42.632;23.298;2024-01-06T12:09:34;25.53;;;15.63;;
13032;SDS011;6583;42.632;23.298;2024-01-06T12:12:02;23.70;;;15.00;;
13032;SDS011;6583;42.632;23.298;2024-01-06T12:14:30;19.60;;;13.10;;
13032;SDS011;6583;42.632;23.298;2024-01-06T12:16:58;16.20;;;12.03;;
13032;SDS011;6583;42.632;23.298;2024-01-06T12:19:27;17.87;;;11.30;;
13032;SDS011;6583;42.632;23.298;2024-01-06T12:21:55;16.10;;;10.00;;
13032;SDS011;6583;42.632;23.298;2024-01-06T12:24:23;15.40;;;10.23;;
13032;SDS011;6583;42.632;23.298;2024-01-06T12:26:50;16.53;;;11.20;;
13032;SDS011;6583;42.632;23.298;2024-01-06T12:29:17;15.00;;;11.37;;
13032;SDS011;6583;42.632;23.298;2024-01-06T12:31:44;13.83;;;10.83;;
13032;SDS011;6583;42.632;23.298;2024-01-06T12:34:12;18.67;;;11.07;;
13032;SDS011;6583;42.632;23.298;2024-01-06T12:36:39;15.77;;;10.50;;
13032;SDS011;6583;42.632;23.298;2024-01-06T12:39:10;19.07;;;11.70;;
13032;SDS011;6583;42.632;23.298;2024-01-06T12:41:39;21.50;;;13.20;;
13032;SDS011;6583;42.632;23.298;2024-01-06T12:44:07;22.80;;;14.43;;
13032;SDS011;6583;42.632;23.298;2024-01-06T12:46:34;27.80;;;14.93;;
13032;SDS011;6583;42.632;23.298;2024-01-06T12:49:01;23.80;;;14.17;;
13032;SDS011;6583;42.632;23.298;2024-01-06T12:51:28;21.70;;;14.07;;
13032;SDS011;6583;42.632;23.298;2024-01-06T12:53:55;21.47;;;13.80;;
13032;SDS011;6583;42.632;23.298;2024-01-06T12:56:22;19.43;;;13.83;;
13032;SDS011;6583;42.632;23.298;2024-01-06T12:58:50;21.90;;;13.40;;
13032;SDS011;6583;42.632;23.298;2024-01-06T13:01:17;19.93;;;13.80;;
13032;SDS011;6583;42.632;23.298;2024-01-06T13:03:44;20.10;;;13.17;;
13032;SDS011;6583;42.632;23.298;2024-01-06T13:06:10;22.23;;;14.13;;
13032;SDS011;6583;42.632;23.298;2024-01-06T13:08:38;19.77;;;13.50;;
13032;SDS011;6583;42.632;23.298;2024-01-06T13:11:05;21.10;;;13.00;;
13032;SDS011;6583;42.632;23.298;2024-01-06T13:13:32;19.67;;;13.37;;
13032;SDS011;6583;42.632;23.298;2024-01-06T13:16:01;20.90;;;13.10;;
13032;SDS011;6583;42.632;23.298;2024-01-06T13:18:28;20.87;;;13.77;;
13032;SDS011;6583;42.632;23.298;2024-01-06T13:20:55;20.47;;;14.33;;
13032;SDS011;6583;42.632;23.298;2024-01-06T13:23:22;19.40;;;13.47;;
13032;SDS011;6583;42.632;23.298;2024-01-06T13:25:48;19.27;;;13.17;;
13032;SDS011;6583;42.632;23.298;2024-01-06T13:28:15;23.17;;;14.37;;
13032;SDS011;6583;42.632;23.298;2024-01-06T13:30:42;24.67;;;14.33;;
13032;SDS011;6583;42.632;23.298;2024-01-06T13:33:10;23.03;;;14.97;;
13032;SDS011;6583;42.632;23.298;2024-01-06T13:35:37;19.57;;;14.93;;
13032;SDS011;6583;42.632;23.298;2024-01-06T13:38:04;21.20;;;15.10;;
13032;SDS011;6583;42.632;23.298;2024-01-06T13:40:30;23.50;;;15.63;;
13032;SDS011;6583;42.632;23.298;2024-01-06T13:42:57;23.97;;;15.57;;
13032;SDS011;6583;42.632;23.298;2024-01-06T13:45:24;28.30;;;18.40;;
13032;SDS011;6583;42.632;23.298;2024-01-06T13:47:51;24.67;;;16.83;;
13032;SDS011;6583;42.632;23.298;2024-01-06T13:50:19;21.00;;;15.97;;
13032;SDS011;6583;42.632;23.298;2024-01-06T13:52:47;24.43;;;16.43;;
13032;SDS011;6583;42.632;23.298;2024-01-06T13:55:14;21.07;;;14.37;;
13032;SDS011;6583;42.632;23.298;2024-01-06T13:57:41;22.47;;;14.70;;
13032;SDS011;6583;42.632;23.298;2024-01-06T14:00:08;22.07;;;14.93;;
13032;SDS011;6583;42.632;23.298;2024-01-06T14:02:35;23.73;;;15.57;;
13032;SDS011;6583;42.632;23.298;2024-01-06T14:05:03;19.43;;;14.10;;
13032;SDS011;6583;42.632;23.298;2024-01-06T14:07:32;19.67;;;12.90;;
13032;SDS011;6583;42.632;23.298;2024-01-06T14:09:59;18.13;;;13.13;;
13032;SDS011;6583;42.632;23.298;2024-01-06T14:12:25;20.53;;;11.67;;
13032;SDS011;6583;42.632;23.298;2024-01-06T14:14:52;16.27;;;10.73;;
13032;SDS011;6583;42.632;23.298;2024-01-06T14:17:18;13.23;;;8.00;;
13032;SDS011;6583;42.632;23.298;2024-01-06T14:19:45;10.77;;;8.53;;
13032;SDS011;6583;42.632;23.298;2024-01-06T14:22:12;13.80;;;9.03;;
13032;SDS011;6583;42.632;23.298;2024-01-06T14:24:41;12.10;;;8.60;;
13032;SDS011;6583;42.632;23.298;2024-01-06T14:27:07;11.17;;;6.73;;
13032;SDS011;6583;42.632;23.298;2024-01-06T14:29:34;10.10;;;6.97;;
13032;SDS011;6583;42.632;23.298;2024-01-06T14:32:01;9.90;;;8.00;;
13032;SDS011;6583;42.632;23.298;2024-01-06T14:34:28;12.30;;;7.67;;
13032;SDS011;6583;42.632;23.298;2024-01-06T14:36:54;12.47;;;8.37;;
13032;SDS011;6583;42.632;23.298;2024-01-06T14:39:21;9.23;;;6.63;;
13032;SDS011;6583;42.632;23.298;2024-01-06T14:41:49;8.20;;;6.00;;
13032;SDS011;6583;42.632;23.298;2024-01-06T14:44:17;10.07;;;5.60;;